createdAt,value
2023-01-20T00:00:19.294Z,83
2023-01-20T00:06:19.257Z,84
2023-01-20T00:10:19.610Z,84
2023-01-20T00:14:19.886Z,83
2023-01-20T00:16:19.778Z,83
2023-01-20T00:18:19.671Z,83
2023-01-20T00:20:19.677Z,82
2023-01-20T00:24:22.661Z,81
2023-01-20T00:26:19.782Z,81
2023-01-20T00:28:19.712Z,82
2023-01-20T00:30:20.253Z,82
2023-01-20T00:32:19.859Z,82
2023-01-20T00:34:22.000Z,82
2023-01-20T00:36:19.622Z,82
2023-01-20T00:38:19.712Z,81
2023-01-20T00:40:25.993Z,81
2023-01-20T00:42:20.221Z,82
2023-01-20T00:44:19.678Z,82
2023-01-20T00:46:19.687Z,82
2023-01-20T00:48:19.654Z,82
2023-01-20T00:50:23.412Z,83
2023-01-20T00:52:21.402Z,83
2023-01-20T00:54:20.703Z,83
2023-01-20T00:56:19.683Z,83
2023-01-20T00:58:19.683Z,83
2023-01-20T01:00:27.718Z,83
2023-01-20T01:02:19.768Z,83
2023-01-20T01:04:19.663Z,83
2023-01-20T01:06:19.708Z,83
2023-01-20T01:08:22.943Z,83
2023-01-20T01:10:19.651Z,84
2023-01-20T01:12:19.759Z,83
2023-01-20T01:14:19.682Z,83
2023-01-20T01:16:21.527Z,82
2023-01-20T01:18:19.650Z,83
2023-01-20T01:20:19.726Z,82
2023-01-20T01:24:22.867Z,82
2023-01-20T01:26:19.721Z,83
2023-01-20T01:28:24.111Z,83
2023-01-20T01:30:19.801Z,83
2023-01-20T01:32:19.725Z,84
2023-01-20T01:34:19.660Z,84
2023-01-20T01:36:22.838Z,84
2023-01-20T01:38:19.985Z,84
2023-01-20T01:42:19.716Z,84
2023-01-20T01:44:19.507Z,83
2023-01-20T01:46:19.606Z,83
2023-01-20T01:48:16.522Z,83
2023-01-20T01:50:26.325Z,83
2023-01-20T01:54:19.722Z,83
2023-01-20T01:58:19.714Z,83
2023-01-20T02:00:19.686Z,83
2023-01-20T02:02:22.740Z,83
2023-01-20T02:08:20.054Z,83
2023-01-20T02:10:27.651Z,83
2023-01-20T02:12:19.692Z,84
2023-01-20T02:14:22.900Z,84
2023-01-20T02:16:19.813Z,83
2023-01-20T02:18:23.756Z,84
2023-01-20T02:20:19.553Z,84
2023-01-20T02:24:19.650Z,84
2023-01-20T02:26:19.962Z,84
2023-01-20T02:28:23.838Z,83
2023-01-20T02:30:19.730Z,83
2023-01-20T02:32:19.826Z,83
2023-01-20T02:34:22.568Z,83
2023-01-20T02:36:29.220Z,83
2023-01-20T02:38:19.724Z,83
2023-01-20T02:40:19.736Z,83
2023-01-20T02:42:23.010Z,84
2023-01-20T02:44:20.954Z,84
2023-01-20T02:46:19.673Z,84
2023-01-20T02:48:19.673Z,84
2023-01-20T02:50:19.906Z,84
2023-01-20T02:52:24.688Z,84
2023-01-20T02:54:19.709Z,84
2023-01-20T02:56:22.885Z,84
2023-01-20T03:00:19.655Z,84
2023-01-20T03:02:19.701Z,84
2023-01-20T03:04:19.609Z,84
2023-01-20T03:06:19.685Z,84
2023-01-20T03:08:19.767Z,84
2023-01-20T03:10:23.086Z,84
2023-01-20T03:12:19.707Z,84
2023-01-20T03:14:19.712Z,84
2023-01-20T03:16:19.753Z,84
2023-01-20T03:18:19.364Z,84
2023-01-20T03:20:23.017Z,84
2023-01-20T03:22:23.326Z,84
2023-01-20T03:24:19.661Z,84
2023-01-20T03:26:20.044Z,84
2023-01-20T03:30:19.666Z,84
2023-01-20T03:34:21.287Z,84
2023-01-20T03:36:18.848Z,84
2023-01-20T03:38:19.650Z,84
2023-01-20T03:40:19.913Z,84
2023-01-20T03:42:19.761Z,84
2023-01-20T03:44:21.058Z,84
2023-01-20T03:48:19.673Z,84
2023-01-20T03:50:19.688Z,84
2023-01-20T03:52:21.131Z,84
2023-01-20T03:54:28.557Z,84
2023-01-20T03:56:20.247Z,84
2023-01-20T04:00:19.691Z,84
2023-01-20T04:02:21.166Z,84
2023-01-20T04:04:21.352Z,84
2023-01-20T04:06:19.703Z,84
2023-01-20T04:08:19.456Z,84
2023-01-20T04:10:17.851Z,84
2023-01-20T04:12:19.682Z,84
2023-01-20T04:14:23.940Z,84
2023-01-20T04:16:19.677Z,84
2023-01-20T04:18:19.680Z,84
2023-01-20T04:20:19.839Z,84
2023-01-20T04:22:19.769Z,84
2023-01-20T04:24:19.752Z,85
2023-01-20T04:26:21.123Z,84
2023-01-20T04:28:19.687Z,84
2023-01-20T04:30:17.313Z,84
2023-01-20T04:32:19.068Z,84
2023-01-20T04:34:19.663Z,84
2023-01-20T04:36:19.767Z,84
2023-01-20T04:38:22.676Z,84
2023-01-20T04:40:23.764Z,84
2023-01-20T04:42:22.860Z,84
2023-01-20T04:44:19.724Z,84
2023-01-20T04:46:24.021Z,84
2023-01-20T04:48:21.431Z,84
2023-01-20T04:50:22.999Z,84
2023-01-20T04:52:21.329Z,84
2023-01-20T04:54:20.942Z,84
2023-01-20T04:58:19.707Z,85
2023-01-20T05:00:19.677Z,84
2023-01-20T05:02:30.769Z,85
2023-01-20T05:04:19.684Z,85
2023-01-20T05:08:22.994Z,84
2023-01-20T05:10:22.876Z,84
2023-01-20T05:12:19.725Z,84
2023-01-20T05:14:19.760Z,84
2023-01-20T05:16:19.828Z,84
2023-01-20T05:18:23.193Z,84
2023-01-20T05:20:19.766Z,84
2023-01-20T05:22:20.256Z,84
2023-01-20T05:24:22.192Z,84
2023-01-20T05:26:19.751Z,84
2023-01-20T05:28:22.947Z,84
2023-01-20T05:30:19.711Z,84
2023-01-20T05:32:19.435Z,84
2023-01-20T05:34:19.683Z,84
2023-01-20T05:36:19.733Z,84
2023-01-20T05:38:19.720Z,84
2023-01-20T05:40:21.355Z,84
2023-01-20T05:42:19.590Z,84
2023-01-20T05:44:19.281Z,84
2023-01-20T05:46:19.749Z,84
2023-01-20T05:48:19.690Z,84
2023-01-20T05:50:19.695Z,84
2023-01-20T05:52:19.666Z,84
2023-01-20T05:54:19.672Z,85
2023-01-20T05:56:19.671Z,84
2023-01-20T05:58:19.759Z,84
2023-01-20T06:02:16.559Z,85
2023-01-20T06:04:19.739Z,85
2023-01-20T06:08:19.567Z,84
2023-01-20T06:10:19.758Z,85
2023-01-20T06:12:21.362Z,85
2023-01-20T06:14:19.103Z,85
2023-01-20T06:16:19.731Z,85
2023-01-20T06:18:19.707Z,85
2023-01-20T06:20:19.679Z,85
2023-01-20T06:22:19.830Z,85
2023-01-20T06:24:19.294Z,85
2023-01-20T06:26:19.736Z,86
2023-01-20T06:28:19.793Z,86
2023-01-20T06:30:22.945Z,86
2023-01-20T06:32:18.966Z,86
2023-01-20T06:34:19.473Z,86
2023-01-20T06:36:22.381Z,86
2023-01-20T06:38:23.946Z,86
2023-01-20T06:40:16.574Z,86
2023-01-20T06:42:22.689Z,87
2023-01-20T06:44:24.039Z,87
2023-01-20T06:46:22.952Z,87
2023-01-20T06:48:17.362Z,87
2023-01-20T06:50:19.525Z,87
2023-01-20T06:52:19.706Z,87
2023-01-20T06:56:19.632Z,87
2023-01-20T07:00:19.847Z,87
2023-01-20T07:02:19.900Z,87
2023-01-20T07:04:21.404Z,87
2023-01-20T07:06:23.050Z,87
2023-01-20T07:08:23.147Z,87
2023-01-20T07:10:19.751Z,88
2023-01-20T07:12:19.773Z,88
2023-01-20T07:14:23.934Z,88
2023-01-20T07:20:19.823Z,88
2023-01-20T07:22:19.664Z,87
2023-01-20T07:24:20.274Z,87
2023-01-20T07:26:22.182Z,87
2023-01-20T07:28:19.856Z,87
2023-01-20T07:30:20.082Z,87
2023-01-20T07:32:19.834Z,88
2023-01-20T07:34:22.908Z,87
2023-01-20T07:36:19.468Z,87
2023-01-20T07:38:20.416Z,87
2023-01-20T07:40:21.225Z,87
2023-01-20T07:42:19.731Z,87
2023-01-20T07:44:19.734Z,87
2023-01-20T07:48:22.748Z,87
2023-01-20T07:50:19.727Z,87
2023-01-20T07:52:19.810Z,87
2023-01-20T07:54:19.269Z,87
2023-01-20T07:56:19.787Z,87
2023-01-20T07:58:19.749Z,87
2023-01-20T08:00:21.437Z,87
2023-01-20T08:02:19.408Z,88
2023-01-20T08:04:23.013Z,87
2023-01-20T08:06:22.349Z,87
2023-01-20T08:08:19.623Z,87
2023-01-20T08:10:21.624Z,87
2023-01-20T08:12:25.945Z,87
2023-01-20T08:14:26.079Z,86
2023-01-20T08:16:19.809Z,87
2023-01-20T08:18:19.737Z,87
2023-01-20T08:20:19.825Z,87
2023-01-20T08:22:20.708Z,87
2023-01-20T08:24:20.156Z,86
2023-01-20T08:26:17.019Z,86
2023-01-20T08:28:19.781Z,86
2023-01-20T08:30:19.824Z,86
2023-01-20T08:32:19.769Z,86
2023-01-20T08:34:19.319Z,86
2023-01-20T08:36:19.848Z,86
2023-01-20T08:38:25.888Z,86
2023-01-20T08:40:22.886Z,86
2023-01-20T08:44:19.344Z,86
2023-01-20T08:46:19.946Z,86
2023-01-20T08:48:24.631Z,86
2023-01-20T08:50:19.920Z,86
2023-01-20T08:52:22.955Z,86
2023-01-20T08:54:22.934Z,86
2023-01-20T08:58:19.736Z,86
2023-01-20T09:00:21.481Z,86
2023-01-20T09:02:19.829Z,85
2023-01-20T09:04:19.740Z,86
2023-01-20T09:06:19.607Z,86
2023-01-20T09:08:23.468Z,86
2023-01-20T09:10:19.845Z,86
2023-01-20T09:12:22.855Z,86
2023-01-20T09:16:19.921Z,86
2023-01-20T09:18:19.742Z,86
2023-01-20T09:20:20.030Z,86
2023-01-20T09:22:19.749Z,86
2023-01-20T09:24:19.782Z,85
2023-01-20T09:26:33.625Z,85
2023-01-20T09:30:22.738Z,85
2023-01-20T09:32:19.590Z,85
2023-01-20T09:34:19.899Z,84
2023-01-20T09:36:23.326Z,84
2023-01-20T09:42:18.544Z,83
2023-01-20T09:44:23.214Z,83
2023-01-20T09:46:19.756Z,82
2023-01-20T09:48:19.728Z,82
2023-01-20T09:50:23.099Z,82
2023-01-20T09:52:21.970Z,82
2023-01-20T09:54:28.987Z,82
2023-01-20T09:58:21.182Z,82
2023-01-20T10:00:20.229Z,81
2023-01-20T10:02:19.068Z,81
2023-01-20T10:04:19.802Z,81
2023-01-20T10:06:23.108Z,81
2023-01-20T10:08:19.788Z,80
2023-01-20T10:10:21.107Z,80
2023-01-20T10:12:19.078Z,80
2023-01-20T10:16:19.798Z,80
2023-01-20T10:18:19.695Z,80
2023-01-20T10:20:19.114Z,81
2023-01-20T10:22:17.270Z,82
2023-01-20T10:24:19.849Z,82
2023-01-20T10:26:20.611Z,82
2023-01-20T10:28:22.980Z,82
2023-01-20T10:30:19.809Z,82
2023-01-20T10:32:19.987Z,83
2023-01-20T10:34:19.801Z,83
2023-01-20T10:36:19.769Z,83
2023-01-20T10:40:19.858Z,83
2023-01-20T10:42:19.851Z,83
2023-01-20T10:46:21.456Z,84
2023-01-20T10:48:22.745Z,84
2023-01-20T10:50:23.017Z,84
2023-01-20T10:52:22.683Z,84
2023-01-20T11:00:19.772Z,82
2023-01-20T11:04:19.393Z,83
2023-01-20T11:06:17.792Z,83
2023-01-20T11:08:23.388Z,82
2023-01-20T11:10:19.758Z,82
2023-01-20T11:12:19.743Z,82
2023-01-20T11:14:19.796Z,81
2023-01-20T11:16:22.931Z,81
2023-01-20T11:18:19.811Z,81
2023-01-20T11:20:19.779Z,81
2023-01-20T11:22:19.794Z,81
2023-01-20T11:24:19.330Z,81
2023-01-20T11:26:19.733Z,82
2023-01-20T11:28:19.782Z,81
2023-01-20T11:30:20.325Z,82
2023-01-20T11:32:24.318Z,81
2023-01-20T11:34:23.245Z,82
2023-01-20T11:36:16.588Z,82
2023-01-20T11:38:19.799Z,81
2023-01-20T11:40:20.157Z,82
2023-01-20T11:42:19.851Z,82
2023-01-20T11:44:19.583Z,81
2023-01-20T11:46:19.777Z,82
2023-01-20T11:48:19.787Z,83
2023-01-20T11:50:19.411Z,83
2023-01-20T11:52:19.858Z,83
2023-01-20T11:54:19.799Z,83
2023-01-20T11:56:20.094Z,83
2023-01-20T11:58:19.793Z,83
2023-01-20T12:00:22.892Z,82
2023-01-20T12:02:19.414Z,82
2023-01-20T12:04:19.952Z,81
2023-01-20T12:06:19.842Z,82
2023-01-20T12:08:19.395Z,82
2023-01-20T12:10:19.856Z,82
2023-01-20T12:12:19.784Z,83
2023-01-20T12:14:19.716Z,83
2023-01-20T12:16:19.802Z,83
2023-01-20T12:18:20.399Z,83
2023-01-20T12:20:20.674Z,83
2023-01-20T12:22:29.014Z,84
2023-01-20T12:24:19.823Z,83
2023-01-20T12:26:19.699Z,83
2023-01-20T12:28:19.782Z,83
2023-01-20T12:30:19.627Z,83
2023-01-20T12:34:19.840Z,83
2023-01-20T12:36:19.826Z,83
2023-01-20T12:46:19.905Z,83
2023-01-20T12:50:26.211Z,82
2023-01-20T12:52:19.784Z,82
2023-01-20T12:54:19.884Z,81
2023-01-20T12:56:23.255Z,83
2023-01-20T12:58:23.246Z,83
2023-01-20T13:00:19.809Z,84
2023-01-20T13:02:19.860Z,84
2023-01-20T13:04:20.957Z,84
2023-01-20T13:06:19.914Z,85
2023-01-20T13:08:19.379Z,85
2023-01-20T13:10:19.782Z,85
2023-01-20T13:12:19.779Z,85
2023-01-20T13:14:20.230Z,85
2023-01-20T13:16:21.486Z,84
2023-01-20T13:18:19.829Z,84
2023-01-20T13:20:19.374Z,84
2023-01-20T13:22:19.796Z,84
2023-01-20T13:24:20.139Z,84
2023-01-20T13:26:20.167Z,84
2023-01-20T13:28:19.803Z,84
2023-01-20T13:30:21.575Z,84
2023-01-20T13:32:19.849Z,84
2023-01-20T13:34:19.419Z,84
2023-01-20T13:36:19.875Z,84
2023-01-20T13:38:19.804Z,83
2023-01-20T13:40:19.818Z,84
2023-01-20T13:42:19.378Z,84
2023-01-20T13:44:19.937Z,84
2023-01-20T13:46:19.687Z,84
2023-01-20T13:48:19.784Z,84
2023-01-20T13:50:19.817Z,84
2023-01-20T13:52:19.829Z,84
2023-01-20T13:54:23.072Z,84
2023-01-20T13:56:21.559Z,84
2023-01-20T14:00:19.548Z,84
2023-01-20T14:02:19.907Z,84
2023-01-20T14:04:19.841Z,84
2023-01-20T14:06:19.793Z,85
2023-01-20T14:08:19.544Z,85
2023-01-20T14:10:19.845Z,85
2023-01-20T14:12:19.744Z,85
2023-01-20T14:14:19.986Z,85
2023-01-20T14:16:19.885Z,85
2023-01-20T14:18:19.975Z,85
2023-01-20T14:20:19.800Z,85
2023-01-20T14:22:19.849Z,86
2023-01-20T14:24:19.761Z,86
2023-01-20T14:26:19.892Z,86
2023-01-20T14:28:19.923Z,86
2023-01-20T14:30:19.790Z,86
2023-01-20T14:32:22.874Z,86
2023-01-20T14:34:27.827Z,86
2023-01-20T14:36:19.851Z,86
2023-01-20T14:38:23.532Z,86
2023-01-20T14:40:23.267Z,86
2023-01-20T14:42:19.866Z,87
2023-01-20T14:44:19.828Z,87
2023-01-20T14:46:20.238Z,87
2023-01-20T14:48:33.197Z,87
2023-01-20T14:50:20.186Z,87
2023-01-20T14:52:19.419Z,87
2023-01-20T14:54:23.877Z,87
2023-01-20T15:00:20.248Z,87
2023-01-20T15:04:19.800Z,88
2023-01-20T15:08:19.886Z,88
2023-01-20T15:10:19.786Z,88
2023-01-20T15:12:19.811Z,88
2023-01-20T15:14:19.828Z,88
2023-01-20T15:16:19.856Z,88
2023-01-20T15:18:19.885Z,88
2023-01-20T15:20:19.814Z,88
2023-01-20T15:22:19.868Z,88
2023-01-20T15:24:19.886Z,88
2023-01-20T15:26:19.905Z,88
2023-01-20T15:28:20.243Z,88
2023-01-20T15:30:20.447Z,88
2023-01-20T15:32:19.440Z,88
2023-01-20T15:38:17.937Z,88
2023-01-20T15:44:19.823Z,88
2023-01-20T15:46:19.906Z,88
2023-01-20T15:48:19.856Z,88
2023-01-20T15:50:19.903Z,88
2023-01-20T15:52:19.448Z,89
2023-01-20T15:54:19.837Z,89
2023-01-20T15:56:19.908Z,89
2023-01-20T15:58:21.527Z,89
2023-01-20T16:00:19.828Z,89
2023-01-20T16:02:19.525Z,89
2023-01-20T16:04:19.819Z,89
2023-01-20T16:06:19.877Z,89
2023-01-20T16:08:19.853Z,89
2023-01-20T16:10:19.819Z,89
2023-01-20T16:12:19.947Z,89
2023-01-20T16:14:21.036Z,89
2023-01-20T16:16:19.421Z,89
2023-01-20T16:18:22.071Z,89
2023-01-20T16:20:19.826Z,89
2023-01-20T16:22:22.987Z,89
2023-01-20T16:24:19.799Z,89
2023-01-20T16:26:23.048Z,89
2023-01-20T16:28:19.881Z,89
2023-01-20T16:30:19.885Z,89
2023-01-20T16:32:24.225Z,89
2023-01-20T16:34:19.778Z,89
2023-01-20T16:40:20.169Z,89
2023-01-20T16:42:23.020Z,89
2023-01-20T16:44:19.860Z,89
2023-01-20T16:46:23.143Z,89
2023-01-20T16:48:22.752Z,89
2023-01-20T16:50:23.056Z,89
2023-01-20T16:52:19.411Z,88
2023-01-20T16:56:19.881Z,89
2023-01-20T16:58:19.837Z,89
2023-01-20T17:04:19.845Z,89
2023-01-20T17:06:19.893Z,89
2023-01-20T17:08:19.870Z,89
2023-01-20T17:10:19.845Z,89
2023-01-20T17:12:21.529Z,89
2023-01-20T17:14:19.889Z,89
2023-01-20T17:16:19.874Z,89
2023-01-20T17:18:19.137Z,89
2023-01-20T17:22:20.298Z,89
2023-01-20T17:24:19.852Z,89
2023-01-20T17:26:20.221Z,89
2023-01-20T17:30:19.867Z,89
2023-01-20T17:32:24.668Z,89
2023-01-20T17:34:19.836Z,89
2023-01-20T17:36:20.938Z,89
2023-01-20T17:38:22.919Z,89
2023-01-20T17:40:23.016Z,89
2023-01-20T17:42:19.878Z,89
2023-01-20T17:44:19.847Z,89
2023-01-20T17:46:21.505Z,89
2023-01-20T17:48:20.312Z,89
2023-01-20T17:50:23.053Z,89
2023-01-20T17:52:19.783Z,89
2023-01-20T17:54:22.787Z,89
2023-01-20T17:56:16.827Z,89
2023-01-20T17:58:19.877Z,89
2023-01-20T18:00:19.869Z,89
2023-01-20T18:02:19.916Z,89
2023-01-20T18:04:23.012Z,89
2023-01-20T18:06:19.946Z,89
2023-01-20T18:08:19.678Z,89
2023-01-20T18:10:17.557Z,89
2023-01-20T18:12:20.097Z,89
2023-01-20T18:14:19.849Z,89
2023-01-20T18:16:19.861Z,89
2023-01-20T18:18:23.224Z,89
2023-01-20T18:20:19.882Z,89
2023-01-20T18:22:29.072Z,89
2023-01-20T18:24:22.788Z,89
2023-01-20T18:28:19.842Z,89
2023-01-20T18:30:23.265Z,89
2023-01-20T18:33:57.753Z,89
2023-01-20T18:35:53.260Z,89
2023-01-20T18:37:56.717Z,89
2023-01-20T18:43:57.433Z,89
2023-01-20T18:45:57.888Z,89
2023-01-20T18:47:52.437Z,89
2023-01-20T18:49:57.409Z,89
2023-01-20T18:53:53.531Z,89
2023-01-20T18:55:57.870Z,89
2023-01-20T18:59:52.386Z,89
2023-01-20T19:05:56.705Z,89
2023-01-20T19:07:57.196Z,89
2023-01-20T19:11:52.874Z,89
2023-01-20T19:13:57.735Z,89
2023-01-20T19:17:56.339Z,89
2023-01-20T19:23:52.465Z,89
2023-01-20T19:29:57.074Z,89
2023-01-20T19:31:56.952Z,89
2023-01-20T19:33:52.626Z,89
2023-01-20T19:35:55.656Z,89
2023-01-20T19:39:56.882Z,89
2023-01-20T19:41:55.069Z,89
2023-01-20T19:45:57.374Z,89
2023-01-20T19:47:54.624Z,89
2023-01-20T19:53:51.080Z,89
2023-01-20T19:57:56.823Z,89
2023-01-20T19:59:52.461Z,89
2023-01-20T20:05:51.932Z,90
2023-01-20T20:11:52.421Z,89
2023-01-20T20:15:57.882Z,90
2023-01-20T20:17:55.580Z,90
2023-01-20T20:23:55.404Z,89
2023-01-20T20:29:56.981Z,89
2023-01-20T20:31:57.853Z,89
2023-01-20T20:33:55.929Z,89
2023-01-20T20:35:52.546Z,89
2023-01-20T20:37:57.848Z,89
2023-01-20T20:39:57.339Z,89
2023-01-20T20:41:51.062Z,90
2023-01-20T20:43:57.856Z,90
2023-01-20T20:45:55.574Z,90
2023-01-20T20:47:52.367Z,90
2023-01-20T20:51:53.555Z,90
2023-01-20T20:53:54.305Z,89
2023-01-20T20:59:59.048Z,89
2023-01-20T21:05:53.480Z,89
2023-01-20T21:07:57.121Z,89
2023-01-20T21:11:51.546Z,89
2023-01-20T21:15:57.839Z,89
2023-01-20T21:17:53.984Z,89
2023-01-20T21:23:52.411Z,89
2023-01-20T21:27:57.994Z,89
2023-01-20T21:29:52.464Z,89
2023-01-20T21:41:55.904Z,90
2023-01-20T21:43:53.116Z,90
2023-01-20T21:45:52.458Z,90
2023-01-20T21:47:52.999Z,90
2023-01-20T21:53:55.210Z,90
2023-01-20T21:57:52.007Z,90
2023-01-20T21:59:50.836Z,90
2023-01-20T22:03:58.064Z,90
2023-01-20T22:05:56.890Z,90
2023-01-20T22:11:51.734Z,90
2023-01-20T22:13:58.313Z,90
2023-01-20T22:15:54.104Z,90
2023-01-20T22:17:52.490Z,90
2023-01-20T22:23:52.941Z,90
2023-01-20T22:29:52.415Z,90
2023-01-20T22:33:57.693Z,90
2023-01-20T22:35:53.716Z,90
2023-01-20T22:41:52.273Z,90
2023-01-20T22:47:53.576Z,90
2023-01-20T22:49:58.011Z,90
2023-01-20T22:51:52.051Z,90
2023-01-20T22:53:52.934Z,90
2023-01-20T22:56:01.062Z,90
2023-01-20T22:59:51.422Z,90
2023-01-20T23:01:58.275Z,90
2023-01-20T23:11:52.348Z,90
2023-01-20T23:13:58.624Z,90
2023-01-20T23:15:56.130Z,90
2023-01-20T23:19:54.972Z,90
2023-01-20T23:23:52.499Z,90
2023-01-20T23:29:52.019Z,90
2023-01-20T23:35:51.542Z,90
2023-01-20T23:37:52.640Z,90
2023-01-20T23:41:52.253Z,90
2023-01-20T23:45:56.045Z,90
2023-01-20T23:47:51.290Z,90
2023-01-20T23:49:52.404Z,90
2023-01-20T23:51:57.830Z,90
2023-01-20T23:53:52.817Z,90
2023-01-20T23:57:58.387Z,90
2023-01-20T23:59:52.377Z,90
